logo tempoitalia

Diretta Meteo Catania-Fontanarossa, Italiavenerdì 23 luglio ore 20:50

Mappa
Sereno 26 °C Sereno 24 Ore: T.min 20 T.max 31
Ponente Est/Sud-Est Km/h 9.3 Punto di rugiada: 22 °C Umidità: 78% Visibilità: 10 Km
Il sole sorge alle: 05:55 Il sole tramonta alle: 20:17
23 Luglio 2021 20:50 tempo osservato: Sereno Sereno 26 78 1014 vento: Nord E/SE 9.3
23 Luglio 2021 20:20 tempo osservato: Sereno Sereno 27 65 1014 vento: Nord E 9.3
23 Luglio 2021 19:50 tempo osservato: Sereno Sereno 28 58 1013 vento: Nord E/SE 13
23 Luglio 2021 19:20 tempo osservato: Sereno Sereno 29 51 1013 vento: Nord E/SE 13
23 Luglio 2021 18:50 tempo osservato: Sereno Sereno 29 51 1013 vento: Nord E/SE 14.8
23 Luglio 2021 18:20 tempo osservato: Sereno Sereno 30 42 1013 vento: Nord E/SE 16.7
23 Luglio 2021 17:50 tempo osservato: Sereno Sereno 30 45 1013 vento: Nord E 14.8
23 Luglio 2021 17:20 tempo osservato: Poco Nuvoloso Poco Nuvoloso 31 40 1014 vento: Nord E/SE 18.5
23 Luglio 2021 16:50 tempo osservato: Poco Nuvoloso Poco Nuvoloso 30 45 1014 vento: Nord E 18.5
23 Luglio 2021 16:20 tempo osservato: Poco Nuvoloso Poco Nuvoloso 31 43 1014 vento: Nord E/SE 20.3
23 Luglio 2021 15:50 tempo osservato: Poco Nuvoloso Poco Nuvoloso 30 51 1014 vento: Nord E 20.3
23 Luglio 2021 15:20 tempo osservato: Poco Nuvoloso Poco Nuvoloso 30 51 1014 vento: Nord E 22.2
23 Luglio 2021 14:20 tempo osservato: Poco Nuvoloso Poco Nuvoloso 29 62 1014 vento: Nord E 22.2
23 Luglio 2021 13:50 tempo osservato: Poco Nuvoloso Poco Nuvoloso 29 62 1014 vento: Nord E 20.3
23 Luglio 2021 13:20 tempo osservato: Poco Nuvoloso Poco Nuvoloso 30 58 1015 vento: Nord E/NE 22.2
23 Luglio 2021 12:50 tempo osservato: Poco Nuvoloso Poco Nuvoloso 30 48 1015 vento: Nord E/NE 22.2
23 Luglio 2021 12:20 tempo osservato: Poco Nuvoloso Poco Nuvoloso 30 51 1015 vento: Nord E/NE 22.2
23 Luglio 2021 11:50 tempo osservato: Sereno Sereno 29 58 1015 vento: Nord E/NE 18.5
23 Luglio 2021 11:20 tempo osservato: Poco Nuvoloso Poco Nuvoloso 29 58 1015 vento: Nord E/NE 16.7
23 Luglio 2021 10:50 tempo osservato: Sereno Sereno 29 58 1015 vento: Nord E/NE 16.7
23 Luglio 2021 10:20 tempo osservato: Sereno Sereno 29 51 1015 vento: Nord E/NE 14.8
23 Luglio 2021 09:50 tempo osservato: Sereno Sereno 29 48 1015 vento: Nord E 13
23 Luglio 2021 09:20 tempo osservato: Sereno Sereno 28 61 1015 vento: Nord N 5.5
23 Luglio 2021 08:50 tempo osservato: Sereno Sereno 28 61 1015 vento: Nord N 3.7
23 Luglio 2021 08:20 tempo osservato: Sereno Sereno 26 65 1015 vento: Nord N 5.5
23 Luglio 2021 07:50 tempo osservato: Sereno Sereno 23 73 1015 vento: Nord O/SO 7.4
23 Luglio 2021 07:20 tempo osservato: Sereno Sereno 22 78 1015 vento: Nord SO 7.4
23 Luglio 2021 06:50 tempo osservato: Sereno Sereno 20 88 1015 vento: Nord O/SO 7.4
23 Luglio 2021 06:20 tempo osservato: Sereno Sereno 20 88 1014 vento: Nord N 5.5
23 Luglio 2021 05:50 tempo osservato: Sereno Sereno 21 82 1014 vento: Nord O 7.4
23 Luglio 2021 05:20 tempo osservato: Sereno Sereno 20 88 1014 vento: Nord O 9.3
23 Luglio 2021 04:50 tempo osservato: Sereno Sereno 20 88 1014 vento: Nord N 5.5
23 Luglio 2021 04:20 tempo osservato: Sereno Sereno 20 88 1015 vento: Nord O 9.3
23 Luglio 2021 03:50 tempo osservato: Sereno Sereno 21 82 1015 vento: Nord N 1.8
23 Luglio 2021 03:20 tempo osservato: Sereno Sereno 21 88 1015 vento: Nord N 3.7
23 Luglio 2021 02:50 tempo osservato: Sereno Sereno 21 88 1015 vento: Nord SO 7.4
23 Luglio 2021 02:20 tempo osservato: Sereno Sereno 22 83 1015 vento: Nord N 5.5
23 Luglio 2021 01:50 tempo osservato: Sereno Sereno 23 78 1015 vento: Nord N 1.8
23 Luglio 2021 01:20 tempo osservato: Sereno Sereno 25 73 1015 vento: Nord N 3.7
23 Luglio 2021 00:50 tempo osservato: Sereno Sereno 24 73 1015 vento: Nord N 5.5
23 Luglio 2021 00:20 tempo osservato: Sereno Sereno 25 73 1015 vento: Nord N 3.7
22 Luglio 2021 23:50 tempo osservato: Sereno Sereno 26 69 1015 vento: Nord N 3.7
22 Luglio 2021 23:20 tempo osservato: Sereno Sereno 26 69 1015 vento: Nord N 3.7
22 Luglio 2021 22:50 tempo osservato: Sereno Sereno 25 73 1015 vento: Nord N 5.5
22 Luglio 2021 22:20 tempo osservato: Sereno Sereno 26 69 1015 vento: Nord N 1.8
22 Luglio 2021 21:50 tempo osservato: Sereno Sereno 26 69 1015 vento: Nord N 1.8